createdAt,value
2023-05-10T00:03:59.677Z,57.83
2023-05-10T00:09:02.222Z,57.06
2023-05-10T00:14:04.923Z,58.65
2023-05-10T00:19:07.606Z,58.67
2023-05-10T00:24:10.184Z,57.35
2023-05-10T00:29:12.860Z,58.18
2023-05-10T00:34:15.797Z,67.72
2023-05-10T00:39:18.406Z,69.08
2023-05-10T00:44:20.966Z,61.31
2023-05-10T00:49:23.874Z,54.65
2023-05-10T00:54:26.608Z,54.45
2023-05-10T00:59:30.138Z,54.78
2023-05-10T01:04:32.686Z,56.19
2023-05-10T01:09:35.644Z,57.27
2023-05-10T01:14:38.538Z,56.83
2023-05-10T01:19:41.344Z,57.28
2023-05-10T01:25:06.272Z,57.08
2023-05-10T01:35:54.860Z,57.72
2023-05-10T01:41:12.700Z,58.49
2023-05-10T01:46:25.642Z,58.75
2023-05-10T01:51:36.438Z,59.39
2023-05-10T01:56:41.659Z,59.09
2023-05-10T02:01:46.068Z,59.00
2023-05-10T02:06:49.659Z,58.66
2023-05-10T02:11:54.810Z,58.64
2023-05-10T02:16:59.553Z,59.77
2023-05-10T02:22:04.289Z,60.18
2023-05-10T02:27:07.859Z,60.53
2023-05-10T02:32:11.718Z,60.07
2023-05-10T02:37:21.441Z,60.56
2023-05-10T02:42:28.773Z,69.83
2023-05-10T02:47:31.421Z,69.12
2023-05-10T02:52:47.679Z,62.15
2023-05-10T02:57:57.739Z,56.00
2023-05-10T03:03:00.450Z,56.93
2023-05-10T03:08:05.140Z,58.17
2023-05-10T03:13:30.621Z,59.05
2023-05-10T03:18:55.574Z,59.61
2023-05-10T03:24:04.040Z,60.39
2023-05-10T03:29:07.348Z,61.08
2023-05-10T03:34:10.030Z,61.57
2023-05-10T03:39:12.526Z,68.66
2023-05-10T03:44:15.100Z,62.92
2023-05-10T03:49:17.649Z,54.34
2023-05-10T03:54:20.294Z,54.34
2023-05-10T03:59:22.811Z,55.48
2023-05-10T04:04:25.394Z,56.19
2023-05-10T04:09:27.985Z,55.19
2023-05-10T04:14:30.586Z,56.27
2023-05-10T04:19:33.862Z,56.44
2023-05-10T04:24:36.408Z,57.18
2023-05-10T04:29:39.345Z,56.89
2023-05-10T04:34:41.932Z,56.84
2023-05-10T04:39:45.298Z,57.17
2023-05-10T04:44:48.038Z,56.73
2023-05-10T04:49:50.641Z,56.61
2023-05-10T04:54:53.249Z,56.32
2023-05-10T04:59:56.008Z,55.97
2023-05-10T05:05:01.515Z,55.49
2023-05-10T05:10:04.593Z,55.26
2023-05-10T05:15:09.881Z,54.67
2023-05-10T05:20:13.660Z,54.36
2023-05-10T05:25:16.917Z,53.48
2023-05-10T05:30:19.990Z,53.28
2023-05-10T05:35:22.573Z,52.53
2023-05-10T05:40:25.259Z,52.27
2023-05-10T05:45:27.924Z,51.59
2023-05-10T05:50:30.533Z,51.04
2023-05-10T05:55:33.430Z,50.56
2023-05-10T06:00:36.134Z,49.99
2023-05-10T06:05:38.820Z,49.38
2023-05-10T06:10:41.411Z,47.88
2023-05-10T06:15:45.359Z,47.46
2023-05-10T06:20:50.766Z,46.76
2023-05-10T06:25:54.280Z,46.17
2023-05-10T06:30:57.902Z,45.79
2023-05-10T06:36:01.200Z,44.96
2023-05-10T06:41:04.110Z,43.83
2023-05-10T06:46:08.211Z,42.98
2023-05-10T06:51:11.115Z,42.41
2023-05-10T06:56:13.701Z,42.36
2023-05-10T07:01:16.374Z,42.50
2023-05-10T07:06:32.291Z,41.35
2023-05-10T07:11:38.350Z,40.73
2023-05-10T07:16:40.972Z,39.47
2023-05-10T07:21:44.310Z,37.61
2023-05-10T07:26:47.199Z,37.30
2023-05-10T07:31:50.038Z,37.96
2023-05-10T07:36:53.563Z,37.38
2023-05-10T07:41:56.783Z,36.37
2023-05-10T07:46:59.549Z,35.79
2023-05-10T07:52:04.211Z,36.36
2023-05-10T07:57:07.235Z,36.52
2023-05-10T08:02:09.853Z,34.50
2023-05-10T08:07:12.570Z,35.00
2023-05-10T08:12:15.287Z,35.40
2023-05-10T08:17:20.083Z,34.27
2023-05-10T08:22:23.182Z,33.75
2023-05-10T08:27:25.951Z,33.53
2023-05-10T08:32:28.518Z,32.19
2023-05-10T08:37:31.339Z,32.80
2023-05-10T08:42:37.113Z,32.38
2023-05-10T08:47:40.182Z,31.68
2023-05-10T08:52:43.597Z,32.70
2023-05-10T08:57:46.491Z,31.55
2023-05-10T09:02:51.176Z,31.45
2023-05-10T09:07:53.917Z,30.95
2023-05-10T09:12:59.336Z,30.76
2023-05-10T09:18:03.356Z,30.67
2023-05-10T09:23:06.783Z,30.54
2023-05-10T09:28:10.561Z,30.49
2023-05-10T09:33:13.202Z,30.30
2023-05-10T09:38:16.340Z,30.43
2023-05-10T09:43:18.907Z,30.31
2023-05-10T09:48:25.014Z,29.48
2023-05-10T09:53:27.571Z,29.50
2023-05-10T09:58:30.374Z,29.37
2023-05-10T10:03:33.971Z,29.19
2023-05-10T10:08:37.229Z,28.56
2023-05-10T10:13:41.353Z,29.09
2023-05-10T10:18:45.347Z,28.64
2023-05-10T10:23:51.992Z,28.54
2023-05-10T10:29:26.538Z,28.63
2023-05-10T10:34:31.432Z,29.02
2023-05-10T10:39:34.175Z,28.66
2023-05-10T10:44:39.262Z,28.23
2023-05-10T10:49:41.910Z,28.41
2023-05-10T10:54:53.377Z,28.61
2023-05-10T11:00:23.952Z,28.53
2023-05-10T11:05:38.563Z,28.27
2023-05-10T11:10:49.719Z,27.82
2023-05-10T11:15:52.481Z,27.79
2023-05-10T11:21:10.194Z,27.85
2023-05-10T11:26:13.414Z,27.34
2023-05-10T11:31:17.827Z,27.35
2023-05-10T11:36:22.520Z,27.07
2023-05-10T11:41:26.445Z,26.82
2023-05-10T11:46:29.620Z,26.97
2023-05-10T11:51:36.143Z,26.77
2023-05-10T11:56:40.188Z,26.76
2023-05-10T12:01:43.838Z,26.64
2023-05-10T12:06:47.518Z,26.31
2023-05-10T12:11:50.053Z,25.77
2023-05-10T12:16:52.723Z,25.89
2023-05-10T12:21:55.368Z,25.26
2023-05-10T12:26:57.973Z,25.51
2023-05-10T12:32:01.332Z,25.04
2023-05-10T12:37:05.139Z,25.17
2023-05-10T12:42:08.059Z,25.69
2023-05-10T12:47:10.719Z,25.27
2023-05-10T12:52:13.234Z,25.13
2023-05-10T12:57:16.002Z,24.25
2023-05-10T13:02:19.136Z,24.55
2023-05-10T13:07:21.826Z,24.62
2023-05-10T13:12:24.507Z,24.08
2023-05-10T13:17:27.149Z,23.91
2023-05-10T13:22:39.741Z,23.68
2023-05-10T13:27:43.004Z,23.45
2023-05-10T13:38:08.723Z,23.41
2023-05-10T13:43:11.369Z,23.13
2023-05-10T13:48:14.571Z,23.44
2023-05-10T13:53:17.185Z,22.78
2023-05-10T13:58:20.536Z,22.48
2023-05-10T14:03:23.475Z,21.94
2023-05-10T14:08:28.227Z,21.34
2023-05-10T14:13:31.373Z,21.78
2023-05-10T14:18:34.060Z,19.99
2023-05-10T14:23:36.790Z,20.05
2023-05-10T14:28:39.491Z,19.58
2023-05-10T14:33:42.241Z,18.61
2023-05-10T14:38:45.019Z,18.80
2023-05-10T14:43:47.541Z,18.06
2023-05-10T14:48:50.159Z,18.08
2023-05-10T14:53:53.114Z,17.56
2023-05-10T14:58:56.643Z,16.78
2023-05-10T15:04:00.012Z,16.66
2023-05-10T15:09:04.523Z,15.78
2023-05-10T15:14:07.383Z,16.13
2023-05-10T15:19:10.992Z,15.77
2023-05-10T15:24:13.612Z,15.36
2023-05-10T15:29:20.927Z,15.00
2023-05-10T15:34:23.510Z,14.87
2023-05-10T15:39:26.061Z,14.68
2023-05-10T15:44:28.933Z,14.71
2023-05-10T15:49:31.679Z,14.70
2023-05-10T15:54:34.251Z,14.75
2023-05-10T15:59:37.748Z,14.42
2023-05-10T16:04:40.359Z,14.01
2023-05-10T16:09:43.111Z,13.85
2023-05-10T16:14:46.759Z,14.12
2023-05-10T16:19:49.393Z,14.79
2023-05-10T16:24:53.628Z,15.56
2023-05-10T16:29:56.264Z,16.89
2023-05-10T16:34:59.002Z,18.53
2023-05-10T16:40:01.666Z,20.10
2023-05-10T16:45:07.684Z,20.96
2023-05-10T16:50:10.468Z,22.10
2023-05-10T16:55:13.078Z,22.66
2023-05-10T17:00:16.306Z,23.35
2023-05-10T17:05:19.063Z,23.97
2023-05-10T17:10:21.818Z,25.08
2023-05-10T17:15:24.407Z,24.35
2023-05-10T17:20:27.503Z,25.38
2023-05-10T17:25:30.063Z,25.59
2023-05-10T17:30:32.967Z,26.62
2023-05-10T17:35:35.644Z,26.74
2023-05-10T17:40:40.928Z,28.18
2023-05-10T17:45:44.793Z,28.76
2023-05-10T17:50:50.018Z,29.19
2023-05-10T17:55:52.736Z,30.36
2023-05-10T18:00:58.390Z,31.06
2023-05-10T18:06:01.259Z,31.07
2023-05-10T18:11:03.930Z,31.58
2023-05-10T18:16:08.881Z,32.81
2023-05-10T18:21:11.472Z,32.76
2023-05-10T18:26:14.160Z,33.47
2023-05-10T18:31:16.811Z,34.27
2023-05-10T18:36:19.460Z,34.89
2023-05-10T18:41:22.417Z,35.37
2023-05-10T18:46:25.153Z,35.41
2023-05-10T18:51:29.551Z,35.69
2023-05-10T18:56:32.187Z,36.20
2023-05-10T19:01:34.742Z,36.64
2023-05-10T19:06:37.398Z,37.32
2023-05-10T19:11:40.989Z,37.96
2023-05-10T19:16:43.712Z,37.64
2023-05-10T19:21:48.350Z,39.00
2023-05-10T19:26:51.988Z,39.98
2023-05-10T19:31:54.627Z,40.60
2023-05-10T19:36:57.266Z,40.34
2023-05-10T19:42:00.773Z,41.72
2023-05-10T19:47:05.198Z,41.14
2023-05-10T19:52:08.156Z,40.63
2023-05-10T19:57:12.027Z,40.83
2023-05-10T20:02:15.476Z,41.72
2023-05-10T20:07:20.969Z,40.21
2023-05-10T20:12:26.465Z,40.39
2023-05-10T20:17:29.472Z,41.47
2023-05-10T20:22:32.078Z,41.58
2023-05-10T20:27:38.612Z,41.14
2023-05-10T20:32:49.157Z,42.20
2023-05-10T20:37:53.050Z,42.72
2023-05-10T20:42:55.789Z,43.93
2023-05-10T20:47:58.523Z,44.64
2023-05-10T20:53:01.383Z,43.86
2023-05-10T20:58:05.104Z,43.63
2023-05-10T21:03:08.086Z,43.77
2023-05-10T21:08:10.765Z,43.46
2023-05-10T21:13:13.458Z,44.74
2023-05-10T21:18:16.013Z,44.84
2023-05-10T21:23:18.659Z,45.16
2023-05-10T21:28:21.649Z,44.97
2023-05-10T21:33:24.362Z,44.62
2023-05-10T21:38:29.996Z,44.73
2023-05-10T21:43:32.765Z,45.05
2023-05-10T21:48:36.376Z,44.79
2023-05-10T21:53:39.435Z,44.51
2023-05-10T21:58:41.943Z,44.39
2023-05-10T22:03:44.774Z,45.22
2023-05-10T22:08:47.422Z,45.19
2023-05-10T22:13:50.003Z,45.26
2023-05-10T22:18:54.418Z,43.90
2023-05-10T22:23:57.145Z,47.15
2023-05-10T22:28:59.862Z,47.40
2023-05-10T22:34:02.516Z,48.87
2023-05-10T22:39:05.039Z,48.03
2023-05-10T22:44:08.244Z,49.39
2023-05-10T22:49:11.350Z,49.99
2023-05-10T22:54:14.050Z,49.11
2023-05-10T22:59:16.580Z,50.29
2023-05-10T23:04:19.177Z,50.17
2023-05-10T23:09:21.794Z,50.92
2023-05-10T23:14:24.433Z,51.67
2023-05-10T23:19:26.984Z,51.15
2023-05-10T23:24:29.575Z,52.68
2023-05-10T23:29:32.978Z,54.18
2023-05-10T23:34:36.521Z,55.59
2023-05-10T23:39:39.065Z,54.50
2023-05-10T23:44:41.794Z,53.61
2023-05-10T23:49:44.455Z,55.48
2023-05-10T23:54:47.291Z,55.64
2023-05-10T23:59:51.131Z,55.56
